Sarandi, Argentina
Current Conditions -  °F | °C
As of 5:00 PM on Wednesday 26 Nov 2014 (Local Time) from SABE Reporting Station
Broken Clouds Broken Clouds  
Wind Chill: 72°   Ceiling: 20000
Heat Index: 72°   Visibility: 6mi
Dew Point: 57°   Wind: 9mph
Humidity: 60%   Direction: 90°E
Pressure: 29.91"   Gusts: NA
Location:  34.67°S, 58.33°W
Report Text: SABE 262000Z 09008KT 9999 FEW025 BKN20022/14 Q1013
Loading
Personal Weather Stations






























Interactive Weather Map New forecast layout! Learn more

10-Day Weather Forecast

Advertisements
Track Severe Weather on mobile